Terminal Aerodrome Forecast
Issued by NWS

Home | Current Version | Previous Version | Text Only | Print | Product List | Glossary On
Versions: 1 2 3 4 5 6 7 8 9 10 11 12 13 14 15 16 17 18 19 20 21 22 23 24 25 26 27 28 29 30 31 32 33
000
FTUS45 KGGW 261800 AAA
TAFOLF
TAF AMD
KOLF 261858Z 2619/2718 VRB06KT P6SM BKN020
     FM262100 VRB05KT P6SM FEW008 SCT025 BKN040
     FM270900 00000KT P6SM BKN040 BKN070
     FM271200 26007KT P6SM FEW005 BKN120=

USA.gov is the U.S. government's official web portal to all federal, state and local government web resources and services.